sensor_id;sensor_type;location;lat;lon;timestamp;P1;durP1;ratioP1;P2;durP2;ratioP2
82417;SDS011;72059;53.734;10.260;2023-11-19T00:00:20;15.18;;;10.60;;
82417;SDS011;72059;53.734;10.260;2023-11-19T00:02:47;16.67;;;11.43;;
82417;SDS011;72059;53.734;10.260;2023-11-19T00:05:15;15.28;;;10.70;;
82417;SDS011;72059;53.734;10.260;2023-11-19T00:07:42;17.17;;;10.10;;
82417;SDS011;72059;53.734;10.260;2023-11-19T00:10:13;17.60;;;10.93;;
82417;SDS011;72059;53.734;10.260;2023-11-19T00:12:45;13.70;;;10.43;;
82417;SDS011;72059;53.734;10.260;2023-11-19T00:15:14;14.90;;;10.20;;
82417;SDS011;72059;53.734;10.260;2023-11-19T00:17:44;13.55;;;10.25;;
82417;SDS011;72059;53.734;10.260;2023-11-19T00:20:13;14.40;;;10.20;;
82417;SDS011;72059;53.734;10.260;2023-11-19T00:22:42;15.00;;;10.32;;
82417;SDS011;72059;53.734;10.260;2023-11-19T00:25:12;14.33;;;10.43;;
82417;SDS011;72059;53.734;10.260;2023-11-19T00:27:39;13.88;;;10.03;;
82417;SDS011;72059;53.734;10.260;2023-11-19T00:30:08;14.65;;;9.70;;
82417;SDS011;72059;53.734;10.260;2023-11-19T00:32:36;13.90;;;8.78;;
82417;SDS011;72059;53.734;10.260;2023-11-19T00:35:08;13.30;;;9.10;;
82417;SDS011;72059;53.734;10.260;2023-11-19T00:37:41;13.50;;;8.98;;
82417;SDS011;72059;53.734;10.260;2023-11-19T00:40:10;11.80;;;8.23;;
82417;SDS011;72059;53.734;10.260;2023-11-19T00:42:38;11.75;;;8.48;;
82417;SDS011;72059;53.734;10.260;2023-11-19T00:45:05;11.15;;;7.80;;
82417;SDS011;72059;53.734;10.260;2023-11-19T00:47:38;8.33;;;6.40;;
82417;SDS011;72059;53.734;10.260;2023-11-19T00:50:05;10.95;;;6.72;;
82417;SDS011;72059;53.734;10.260;2023-11-19T00:55:04;7.60;;;5.83;;
82417;SDS011;72059;53.734;10.260;2023-11-19T00:57:32;8.25;;;5.90;;
82417;SDS011;72059;53.734;10.260;2023-11-19T00:59:59;9.38;;;5.92;;
82417;SDS011;72059;53.734;10.260;2023-11-19T01:02:29;6.83;;;5.80;;
82417;SDS011;72059;53.734;10.260;2023-11-19T01:04:56;7.70;;;5.67;;
82417;SDS011;72059;53.734;10.260;2023-11-19T01:07:24;6.45;;;5.25;;
82417;SDS011;72059;53.734;10.260;2023-11-19T01:09:52;6.17;;;4.78;;
82417;SDS011;72059;53.734;10.260;2023-11-19T01:12:19;7.12;;;4.90;;
82417;SDS011;72059;53.734;10.260;2023-11-19T01:14:47;5.78;;;5.03;;
82417;SDS011;72059;53.734;10.260;2023-11-19T01:17:14;7.62;;;5.25;;
82417;SDS011;72059;53.734;10.260;2023-11-19T01:19:42;8.48;;;5.53;;
82417;SDS011;72059;53.734;10.260;2023-11-19T01:22:09;6.92;;;5.15;;
82417;SDS011;72059;53.734;10.260;2023-11-19T01:24:36;6.72;;;4.85;;
82417;SDS011;72059;53.734;10.260;2023-11-19T01:27:04;5.00;;;4.53;;
82417;SDS011;72059;53.734;10.260;2023-11-19T01:29:31;5.83;;;4.53;;
82417;SDS011;72059;53.734;10.260;2023-11-19T01:31:59;4.72;;;4.20;;
82417;SDS011;72059;53.734;10.260;2023-11-19T01:34:26;5.12;;;3.92;;
82417;SDS011;72059;53.734;10.260;2023-11-19T01:36:54;4.55;;;3.95;;
82417;SDS011;72059;53.734;10.260;2023-11-19T01:39:21;4.10;;;3.45;;
82417;SDS011;72059;53.734;10.260;2023-11-19T01:41:49;4.33;;;3.60;;
82417;SDS011;72059;53.734;10.260;2023-11-19T01:44:16;5.85;;;3.70;;
82417;SDS011;72059;53.734;10.260;2023-11-19T01:46:44;3.67;;;3.08;;
82417;SDS011;72059;53.734;10.260;2023-11-19T01:49:14;3.65;;;3.17;;
82417;SDS011;72059;53.734;10.260;2023-11-19T01:51:43;2.90;;;2.70;;
82417;SDS011;72059;53.734;10.260;2023-11-19T01:54:12;2.90;;;2.60;;
82417;SDS011;72059;53.734;10.260;2023-11-19T01:56:41;2.83;;;2.60;;
82417;SDS011;72059;53.734;10.260;2023-11-19T01:59:09;4.00;;;3.05;;
82417;SDS011;72059;53.734;10.260;2023-11-19T02:01:39;3.45;;;2.27;;
82417;SDS011;72059;53.734;10.260;2023-11-19T02:04:07;2.65;;;2.02;;
82417;SDS011;72059;53.734;10.260;2023-11-19T02:06:36;3.92;;;2.37;;
82417;SDS011;72059;53.734;10.260;2023-11-19T02:09:06;2.07;;;1.80;;
82417;SDS011;72059;53.734;10.260;2023-11-19T02:11:34;3.05;;;2.08;;
82417;SDS011;72059;53.734;10.260;2023-11-19T02:14:01;2.27;;;2.00;;
82417;SDS011;72059;53.734;10.260;2023-11-19T02:16:32;2.00;;;1.87;;
82417;SDS011;72059;53.734;10.260;2023-11-19T02:18:59;1.82;;;1.72;;
82417;SDS011;72059;53.734;10.260;2023-11-19T02:21:27;2.10;;;1.90;;
82417;SDS011;72059;53.734;10.260;2023-11-19T02:23:55;2.30;;;2.10;;
82417;SDS011;72059;53.734;10.260;2023-11-19T02:26:25;1.62;;;1.52;;
82417;SDS011;72059;53.734;10.260;2023-11-19T02:28:56;1.92;;;1.82;;
82417;SDS011;72059;53.734;10.260;2023-11-19T02:31:23;2.10;;;1.90;;
82417;SDS011;72059;53.734;10.260;2023-11-19T02:33:52;1.67;;;1.57;;
82417;SDS011;72059;53.734;10.260;2023-11-19T02:36:20;2.30;;;1.57;;
82417;SDS011;72059;53.734;10.260;2023-11-19T02:38:47;1.52;;;1.42;;
82417;SDS011;72059;53.734;10.260;2023-11-19T02:41:15;1.60;;;1.50;;
82417;SDS011;72059;53.734;10.260;2023-11-19T02:43:42;1.47;;;1.37;;
82417;SDS011;72059;53.734;10.260;2023-11-19T02:46:10;1.57;;;1.47;;
82417;SDS011;72059;53.734;10.260;2023-11-19T02:48:37;1.50;;;1.40;;
82417;SDS011;72059;53.734;10.260;2023-11-19T02:51:05;1.35;;;1.25;;
82417;SDS011;72059;53.734;10.260;2023-11-19T02:53:36;1.65;;;1.27;;
82417;SDS011;72059;53.734;10.260;2023-11-19T02:56:05;1.45;;;1.10;;
82417;SDS011;72059;53.734;10.260;2023-11-19T02:58:42;1.10;;;1.00;;
82417;SDS011;72059;53.734;10.260;2023-11-19T03:01:12;0.85;;;0.85;;
82417;SDS011;72059;53.734;10.260;2023-11-19T03:03:41;1.00;;;0.98;;
82417;SDS011;72059;53.734;10.260;2023-11-19T03:06:08;0.98;;;0.98;;
82417;SDS011;72059;53.734;10.260;2023-11-19T03:08:36;1.10;;;1.10;;
82417;SDS011;72059;53.734;10.260;2023-11-19T03:11:04;1.10;;;1.00;;
82417;SDS011;72059;53.734;10.260;2023-11-19T03:13:31;0.82;;;0.82;;
82417;SDS011;72059;53.734;10.260;2023-11-19T03:15:58;2.37;;;0.95;;
82417;SDS011;72059;53.734;10.260;2023-11-19T03:18:26;1.20;;;1.15;;
82417;SDS011;72059;53.734;10.260;2023-11-19T03:20:54;0.72;;;0.72;;
82417;SDS011;72059;53.734;10.260;2023-11-19T03:23:21;0.88;;;0.88;;
82417;SDS011;72059;53.734;10.260;2023-11-19T03:25:49;1.42;;;0.90;;
82417;SDS011;72059;53.734;10.260;2023-11-19T03:28:16;0.70;;;0.70;;
82417;SDS011;72059;53.734;10.260;2023-11-19T03:30:43;0.80;;;0.80;;
82417;SDS011;72059;53.734;10.260;2023-11-19T03:33:12;0.93;;;0.93;;
82417;SDS011;72059;53.734;10.260;2023-11-19T03:35:39;0.80;;;0.80;;
82417;SDS011;72059;53.734;10.260;2023-11-19T03:38:07;0.80;;;0.70;;
82417;SDS011;72059;53.734;10.260;2023-11-19T03:40:34;0.72;;;0.72;;
82417;SDS011;72059;53.734;10.260;2023-11-19T03:43:03;0.90;;;0.90;;
82417;SDS011;72059;53.734;10.260;2023-11-19T03:45:30;0.90;;;0.90;;
82417;SDS011;72059;53.734;10.260;2023-11-19T03:47:58;0.78;;;0.78;;
82417;SDS011;72059;53.734;10.260;2023-11-19T03:50:26;0.95;;;0.95;;
82417;SDS011;72059;53.734;10.260;2023-11-19T03:52:54;1.32;;;1.00;;
82417;SDS011;72059;53.734;10.260;2023-11-19T03:55:21;0.88;;;0.88;;
82417;SDS011;72059;53.734;10.260;2023-11-19T03:57:48;0.80;;;0.80;;
82417;SDS011;72059;53.734;10.260;2023-11-19T04:00:16;1.07;;;1.07;;
82417;SDS011;72059;53.734;10.260;2023-11-19T04:02:43;1.20;;;1.10;;
82417;SDS011;72059;53.734;10.260;2023-11-19T04:05:12;1.17;;;1.17;;
82417;SDS011;72059;53.734;10.260;2023-11-19T04:07:39;1.52;;;1.42;;
82417;SDS011;72059;53.734;10.260;2023-11-19T04:10:07;1.75;;;1.65;;
82417;SDS011;72059;53.734;10.260;2023-11-19T04:12:35;1.32;;;1.20;;
82417;SDS011;72059;53.734;10.260;2023-11-19T04:15:02;1.37;;;1.27;;
82417;SDS011;72059;53.734;10.260;2023-11-19T04:17:30;1.55;;;1.45;;
82417;SDS011;72059;53.734;10.260;2023-11-19T04:19:57;2.37;;;2.27;;
82417;SDS011;72059;53.734;10.260;2023-11-19T04:22:25;1.80;;;1.70;;
82417;SDS011;72059;53.734;10.260;2023-11-19T04:24:52;3.58;;;2.40;;
82417;SDS011;72059;53.734;10.260;2023-11-19T04:27:20;4.65;;;2.75;;
82417;SDS011;72059;53.734;10.260;2023-11-19T04:29:47;3.67;;;3.37;;
82417;SDS011;72059;53.734;10.260;2023-11-19T04:32:16;3.35;;;3.05;;
82417;SDS011;72059;53.734;10.260;2023-11-19T04:34:43;2.77;;;2.20;;
82417;SDS011;72059;53.734;10.260;2023-11-19T04:37:11;2.77;;;2.58;;
82417;SDS011;72059;53.734;10.260;2023-11-19T04:39:38;3.25;;;2.95;;
82417;SDS011;72059;53.734;10.260;2023-11-19T04:42:05;3.55;;;3.25;;
82417;SDS011;72059;53.734;10.260;2023-11-19T04:44:33;3.80;;;3.50;;
82417;SDS011;72059;53.734;10.260;2023-11-19T04:47:00;4.45;;;3.40;;
82417;SDS011;72059;53.734;10.260;2023-11-19T04:49:28;3.40;;;3.10;;
82417;SDS011;72059;53.734;10.260;2023-11-19T04:51:56;3.10;;;2.80;;
82417;SDS011;72059;53.734;10.260;2023-11-19T04:54:23;2.80;;;2.60;;
82417;SDS011;72059;53.734;10.260;2023-11-19T04:56:50;3.12;;;2.83;;
82417;SDS011;72059;53.734;10.260;2023-11-19T04:59:18;2.42;;;2.22;;
82417;SDS011;72059;53.734;10.260;2023-11-19T05:01:48;2.87;;;2.58;;
82417;SDS011;72059;53.734;10.260;2023-11-19T05:04:16;4.65;;;4.10;;
82417;SDS011;72059;53.734;10.260;2023-11-19T05:06:44;3.87;;;3.47;;
82417;SDS011;72059;53.734;10.260;2023-11-19T05:09:11;6.92;;;4.37;;
82417;SDS011;72059;53.734;10.260;2023-11-19T05:11:39;15.18;;;8.83;;
82417;SDS011;72059;53.734;10.260;2023-11-19T05:14:06;15.13;;;7.62;;
82417;SDS011;72059;53.734;10.260;2023-11-19T05:16:34;10.30;;;6.08;;
82417;SDS011;72059;53.734;10.260;2023-11-19T05:19:02;23.83;;;9.93;;
82417;SDS011;72059;53.734;10.260;2023-11-19T05:21:29;16.90;;;8.38;;
82417;SDS011;72059;53.734;10.260;2023-11-19T05:23:57;11.45;;;7.10;;
82417;SDS011;72059;53.734;10.260;2023-11-19T05:26:24;15.65;;;7.90;;
82417;SDS011;72059;53.734;10.260;2023-11-19T05:28:52;21.82;;;9.85;;
82417;SDS011;72059;53.734;10.260;2023-11-19T05:31:19;37.70;;;14.13;;
82417;SDS011;72059;53.734;10.260;2023-11-19T05:33:47;39.35;;;14.58;;
82417;SDS011;72059;53.734;10.260;2023-11-19T05:36:14;24.35;;;11.90;;
82417;SDS011;72059;53.734;10.260;2023-11-19T05:38:42;30.70;;;14.05;;
82417;SDS011;72059;53.734;10.260;2023-11-19T05:41:10;29.35;;;12.37;;
82417;SDS011;72059;53.734;10.260;2023-11-19T05:43:37;24.85;;;12.78;;
82417;SDS011;72059;53.734;10.260;2023-11-19T05:46:06;28.42;;;13.40;;
82417;SDS011;72059;53.734;10.260;2023-11-19T05:48:34;34.83;;;14.50;;
82417;SDS011;72059;53.734;10.260;2023-11-19T05:51:01;31.50;;;15.05;;
82417;SDS011;72059;53.734;10.260;2023-11-19T05:53:29;30.90;;;14.78;;
82417;SDS011;72059;53.734;10.260;2023-11-19T05:55:57;26.20;;;13.00;;
82417;SDS011;72059;53.734;10.260;2023-11-19T05:58:26;33.98;;;15.32;;
82417;SDS011;72059;53.734;10.260;2023-11-19T06:00:54;32.88;;;15.00;;
82417;SDS011;72059;53.734;10.260;2023-11-19T06:03:22;28.02;;;14.00;;
82417;SDS011;72059;53.734;10.260;2023-11-19T06:05:50;30.00;;;13.65;;
82417;SDS011;72059;53.734;10.260;2023-11-19T06:08:20;43.17;;;19.23;;
82417;SDS011;72059;53.734;10.260;2023-11-19T06:10:47;42.25;;;17.77;;
82417;SDS011;72059;53.734;10.260;2023-11-19T06:13:16;42.30;;;18.27;;
82417;SDS011;72059;53.734;10.260;2023-11-19T06:15:45;37.90;;;16.85;;
82417;SDS011;72059;53.734;10.260;2023-11-19T06:18:12;65.72;;;23.65;;
82417;SDS011;72059;53.734;10.260;2023-11-19T06:20:40;63.15;;;23.60;;
82417;SDS011;72059;53.734;10.260;2023-11-19T06:23:07;54.40;;;21.25;;
82417;SDS011;72059;53.734;10.260;2023-11-19T06:25:35;47.05;;;21.00;;
82417;SDS011;72059;53.734;10.260;2023-11-19T06:28:02;66.25;;;22.48;;
82417;SDS011;72059;53.734;10.260;2023-11-19T06:30:30;58.80;;;21.85;;
82417;SDS011;72059;53.734;10.260;2023-11-19T06:32:58;62.27;;;21.85;;
82417;SDS011;72059;53.734;10.260;2023-11-19T06:35:25;66.28;;;23.15;;
82417;SDS011;72059;53.734;10.260;2023-11-19T06:37:54;74.95;;;25.57;;
82417;SDS011;72059;53.734;10.260;2023-11-19T06:40:22;58.42;;;22.42;;
82417;SDS011;72059;53.734;10.260;2023-11-19T06:42:49;78.65;;;25.17;;
82417;SDS011;72059;53.734;10.260;2023-11-19T06:45:17;79.45;;;24.98;;
82417;SDS011;72059;53.734;10.260;2023-11-19T06:47:45;72.47;;;24.25;;
82417;SDS011;72059;53.734;10.260;2023-11-19T06:50:13;70.60;;;23.07;;
82417;SDS011;72059;53.734;10.260;2023-11-19T06:52:40;53.87;;;20.70;;
82417;SDS011;72059;53.734;10.260;2023-11-19T06:55:08;56.65;;;18.80;;
82417;SDS011;72059;53.734;10.260;2023-11-19T06:57:35;65.03;;;22.02;;
82417;SDS011;72059;53.734;10.260;2023-11-19T07:00:03;67.97;;;23.22;;
82417;SDS011;72059;53.734;10.260;2023-11-19T07:02:31;63.55;;;21.80;;
82417;SDS011;72059;53.734;10.260;2023-11-19T07:04:59;68.05;;;22.87;;
82417;SDS011;72059;53.734;10.260;2023-11-19T07:07:26;49.03;;;19.07;;
82417;SDS011;72059;53.734;10.260;2023-11-19T07:09:54;39.80;;;16.85;;
82417;SDS011;72059;53.734;10.260;2023-11-19T07:12:21;36.17;;;15.80;;
82417;SDS011;72059;53.734;10.260;2023-11-19T07:14:49;45.78;;;17.57;;
82417;SDS011;72059;53.734;10.260;2023-11-19T07:17:16;45.17;;;17.67;;
82417;SDS011;72059;53.734;10.260;2023-11-19T07:19:43;41.20;;;16.45;;
82417;SDS011;72059;53.734;10.260;2023-11-19T07:22:11;41.18;;;16.82;;
82417;SDS011;72059;53.734;10.260;2023-11-19T07:24:41;67.15;;;20.43;;
82417;SDS011;72059;53.734;10.260;2023-11-19T07:27:08;68.02;;;21.87;;
82417;SDS011;72059;53.734;10.260;2023-11-19T07:29:36;51.13;;;18.80;;
82417;SDS011;72059;53.734;10.260;2023-11-19T07:32:03;50.10;;;17.67;;
82417;SDS011;72059;53.734;10.260;2023-11-19T07:34:31;64.32;;;18.60;;
82417;SDS011;72059;53.734;10.260;2023-11-19T07:36:58;43.35;;;15.63;;
82417;SDS011;72059;53.734;10.260;2023-11-19T07:39:28;53.65;;;16.05;;
82417;SDS011;72059;53.734;10.260;2023-11-19T07:41:56;58.00;;;15.93;;
82417;SDS011;72059;53.734;10.260;2023-11-19T07:44:23;45.55;;;14.18;;
82417;SDS011;72059;53.734;10.260;2023-11-19T07:46:51;41.40;;;13.38;;
82417;SDS011;72059;53.734;10.260;2023-11-19T07:49:19;56.30;;;12.47;;
82417;SDS011;72059;53.734;10.260;2023-11-19T07:51:47;46.18;;;12.58;;
82417;SDS011;72059;53.734;10.260;2023-11-19T07:54:14;46.90;;;12.45;;
82417;SDS011;72059;53.734;10.260;2023-11-19T07:56:42;44.98;;;12.18;;
82417;SDS011;72059;53.734;10.260;2023-11-19T07:59:09;46.30;;;10.70;;
82417;SDS011;72059;53.734;10.260;2023-11-19T08:01:36;47.43;;;9.78;;
82417;SDS011;72059;53.734;10.260;2023-11-19T08:04:04;59.67;;;10.88;;
82417;SDS011;72059;53.734;10.260;2023-11-19T08:06:31;37.10;;;9.05;;
82417;SDS011;72059;53.734;10.260;2023-11-19T08:08:59;52.03;;;10.08;;
82417;SDS011;72059;53.734;10.260;2023-11-19T08:11:26;46.15;;;10.85;;
82417;SDS011;72059;53.734;10.260;2023-11-19T08:13:54;52.83;;;10.72;;
82417;SDS011;72059;53.734;10.260;2023-11-19T08:16:21;46.35;;;9.10;;
82417;SDS011;72059;53.734;10.260;2023-11-19T08:18:49;53.02;;;10.35;;
82417;SDS011;72059;53.734;10.260;2023-11-19T08:21:16;45.03;;;9.15;;
82417;SDS011;72059;53.734;10.260;2023-11-19T08:23:43;44.45;;;8.98;;
82417;SDS011;72059;53.734;10.260;2023-11-19T08:26:11;50.75;;;9.43;;
82417;SDS011;72059;53.734;10.260;2023-11-19T08:28:38;50.52;;;8.63;;
82417;SDS011;72059;53.734;10.260;2023-11-19T08:31:06;44.23;;;8.63;;
82417;SDS011;72059;53.734;10.260;2023-11-19T08:33:33;54.08;;;7.70;;
82417;SDS011;72059;53.734;10.260;2023-11-19T08:36:01;52.40;;;8.40;;
82417;SDS011;72059;53.734;10.260;2023-11-19T08:38:29;40.73;;;7.03;;
82417;SDS011;72059;53.734;10.260;2023-11-19T08:40:56;54.42;;;8.15;;
82417;SDS011;72059;53.734;10.260;2023-11-19T08:43:27;55.48;;;7.85;;
82417;SDS011;72059;53.734;10.260;2023-11-19T08:45:55;50.43;;;7.17;;
82417;SDS011;72059;53.734;10.260;2023-11-19T08:48:22;47.30;;;7.62;;
82417;SDS011;72059;53.734;10.260;2023-11-19T08:50:51;46.60;;;7.08;;
82417;SDS011;72059;53.734;10.260;2023-11-19T08:53:18;35.75;;;6.87;;
82417;SDS011;72059;53.734;10.260;2023-11-19T08:55:46;46.88;;;7.33;;
82417;SDS011;72059;53.734;10.260;2023-11-19T08:58:15;37.53;;;7.25;;
82417;SDS011;72059;53.734;10.260;2023-11-19T09:00:43;36.25;;;6.55;;
82417;SDS011;72059;53.734;10.260;2023-11-19T09:03:11;40.65;;;6.10;;
82417;SDS011;72059;53.734;10.260;2023-11-19T09:05:38;38.85;;;6.70;;
82417;SDS011;72059;53.734;10.260;2023-11-19T09:08:06;43.95;;;6.80;;
82417;SDS011;72059;53.734;10.260;2023-11-19T09:10:34;51.50;;;8.15;;
82417;SDS011;72059;53.734;10.260;2023-11-19T09:13:01;43.75;;;7.15;;
82417;SDS011;72059;53.734;10.260;2023-11-19T09:15:29;46.98;;;8.15;;
82417;SDS011;72059;53.734;10.260;2023-11-19T09:17:56;48.90;;;7.47;;
82417;SDS011;72059;53.734;10.260;2023-11-19T09:20:24;48.42;;;7.40;;
82417;SDS011;72059;53.734;10.260;2023-11-19T09:22:51;51.08;;;7.05;;
82417;SDS011;72059;53.734;10.260;2023-11-19T09:25:19;46.48;;;7.35;;
82417;SDS011;72059;53.734;10.260;2023-11-19T09:27:46;46.80;;;6.65;;
82417;SDS011;72059;53.734;10.260;2023-11-19T09:30:14;45.95;;;7.40;;
82417;SDS011;72059;53.734;10.260;2023-11-19T09:32:41;52.27;;;7.00;;
82417;SDS011;72059;53.734;10.260;2023-11-19T09:35:09;49.55;;;7.12;;
82417;SDS011;72059;53.734;10.260;2023-11-19T09:37:38;46.48;;;6.67;;
82417;SDS011;72059;53.734;10.260;2023-11-19T09:40:06;49.75;;;7.33;;
82417;SDS011;72059;53.734;10.260;2023-11-19T09:42:43;53.02;;;7.08;;
82417;SDS011;72059;53.734;10.260;2023-11-19T09:45:05;44.93;;;6.70;;
82417;SDS011;72059;53.734;10.260;2023-11-19T09:47:35;46.45;;;7.15;;
82417;SDS011;72059;53.734;10.260;2023-11-19T09:50:03;33.70;;;6.58;;
82417;SDS011;72059;53.734;10.260;2023-11-19T09:52:31;46.10;;;7.58;;
82417;SDS011;72059;53.734;10.260;2023-11-19T09:54:58;55.17;;;8.00;;
82417;SDS011;72059;53.734;10.260;2023-11-19T09:57:26;50.75;;;7.97;;
82417;SDS011;72059;53.734;10.260;2023-11-19T09:59:56;47.15;;;7.67;;
82417;SDS011;72059;53.734;10.260;2023-11-19T10:02:23;39.65;;;6.53;;
82417;SDS011;72059;53.734;10.260;2023-11-19T10:04:53;49.50;;;7.40;;
82417;SDS011;72059;53.734;10.260;2023-11-19T10:07:22;39.90;;;6.50;;
82417;SDS011;72059;53.734;10.260;2023-11-19T10:09:49;46.25;;;6.70;;
82417;SDS011;72059;53.734;10.260;2023-11-19T10:12:17;62.03;;;7.80;;
82417;SDS011;72059;53.734;10.260;2023-11-19T10:14:45;40.83;;;6.70;;
82417;SDS011;72059;53.734;10.260;2023-11-19T10:17:14;36.48;;;7.42;;
82417;SDS011;72059;53.734;10.260;2023-11-19T10:19:41;39.48;;;7.05;;
82417;SDS011;72059;53.734;10.260;2023-11-19T10:22:09;35.05;;;7.03;;
82417;SDS011;72059;53.734;10.260;2023-11-19T10:24:39;51.63;;;8.50;;
82417;SDS011;72059;53.734;10.260;2023-11-19T10:27:07;37.65;;;6.47;;
82417;SDS011;72059;53.734;10.260;2023-11-19T10:29:37;37.73;;;6.53;;
82417;SDS011;72059;53.734;10.260;2023-11-19T10:32:05;41.08;;;7.37;;
82417;SDS011;72059;53.734;10.260;2023-11-19T10:34:32;46.92;;;7.53;;
82417;SDS011;72059;53.734;10.260;2023-11-19T10:37:00;36.85;;;6.37;;
82417;SDS011;72059;53.734;10.260;2023-11-19T10:39:33;43.02;;;6.80;;
82417;SDS011;72059;53.734;10.260;2023-11-19T10:42:17;41.18;;;7.17;;
82417;SDS011;72059;53.734;10.260;2023-11-19T10:44:44;32.15;;;6.83;;
82417;SDS011;72059;53.734;10.260;2023-11-19T10:47:11;40.60;;;6.33;;
82417;SDS011;72059;53.734;10.260;2023-11-19T10:49:42;48.48;;;7.28;;
82417;SDS011;72059;53.734;10.260;2023-11-19T10:52:11;48.35;;;7.42;;
82417;SDS011;72059;53.734;10.260;2023-11-19T10:54:40;32.30;;;6.72;;
82417;SDS011;72059;53.734;10.260;2023-11-19T10:57:10;31.37;;;5.47;;
82417;SDS011;72059;53.734;10.260;2023-11-19T10:59:41;32.38;;;6.53;;
82417;SDS011;72059;53.734;10.260;2023-11-19T11:02:10;32.80;;;6.58;;
82417;SDS011;72059;53.734;10.260;2023-11-19T11:04:41;32.10;;;6.20;;
82417;SDS011;72059;53.734;10.260;2023-11-19T11:07:09;36.80;;;7.65;;
82417;SDS011;72059;53.734;10.260;2023-11-19T11:09:43;36.33;;;6.35;;
82417;SDS011;72059;53.734;10.260;2023-11-19T11:12:14;25.50;;;5.50;;
82417;SDS011;72059;53.734;10.260;2023-11-19T11:14:44;27.05;;;4.97;;
82417;SDS011;72059;53.734;10.260;2023-11-19T11:17:12;31.95;;;6.90;;
82417;SDS011;72059;53.734;10.260;2023-11-19T11:19:43;26.80;;;5.97;;
82417;SDS011;72059;53.734;10.260;2023-11-19T11:22:10;34.43;;;6.30;;
82417;SDS011;72059;53.734;10.260;2023-11-19T11:25:02;34.75;;;7.50;;
82417;SDS011;72059;53.734;10.260;2023-11-19T11:27:48;30.80;;;6.60;;
82417;SDS011;72059;53.734;10.260;2023-11-19T11:30:26;37.95;;;6.95;;
82417;SDS011;72059;53.734;10.260;2023-11-19T11:35:55;34.63;;;6.47;;
82417;SDS011;72059;53.734;10.260;2023-11-19T11:38:28;34.88;;;7.53;;
82417;SDS011;72059;53.734;10.260;2023-11-19T11:41:15;36.15;;;7.47;;
82417;SDS011;72059;53.734;10.260;2023-11-19T11:43:52;31.93;;;6.80;;
82417;SDS011;72059;53.734;10.260;2023-11-19T11:49:05;36.40;;;6.47;;
82417;SDS011;72059;53.734;10.260;2023-11-19T12:02:14;30.08;;;6.65;;
82417;SDS011;72059;53.734;10.260;2023-11-19T12:04:46;29.70;;;5.40;;
82417;SDS011;72059;53.734;10.260;2023-11-19T12:07:17;31.97;;;6.35;;
82417;SDS011;72059;53.734;10.260;2023-11-19T12:09:47;29.52;;;5.72;;
82417;SDS011;72059;53.734;10.260;2023-11-19T12:12:26;33.95;;;6.60;;
82417;SDS011;72059;53.734;10.260;2023-11-19T12:20:05;33.18;;;6.05;;
82417;SDS011;72059;53.734;10.260;2023-11-19T12:22:40;29.02;;;6.10;;
82417;SDS011;72059;53.734;10.260;2023-11-19T12:25:09;31.27;;;5.83;;
82417;SDS011;72059;53.734;10.260;2023-11-19T12:27:43;28.67;;;5.67;;
82417;SDS011;72059;53.734;10.260;2023-11-19T12:30:12;29.23;;;5.25;;
82417;SDS011;72059;53.734;10.260;2023-11-19T12:32:41;22.75;;;4.72;;
82417;SDS011;72059;53.734;10.260;2023-11-19T12:35:10;30.43;;;6.12;;
82417;SDS011;72059;53.734;10.260;2023-11-19T12:37:41;25.95;;;4.92;;
82417;SDS011;72059;53.734;10.260;2023-11-19T12:40:16;36.65;;;6.30;;
82417;SDS011;72059;53.734;10.260;2023-11-19T12:42:46;29.98;;;5.95;;
82417;SDS011;72059;53.734;10.260;2023-11-19T12:45:17;32.73;;;6.50;;
82417;SDS011;72059;53.734;10.260;2023-11-19T12:47:46;29.70;;;6.50;;
82417;SDS011;72059;53.734;10.260;2023-11-19T12:50:15;26.40;;;6.12;;
82417;SDS011;72059;53.734;10.260;2023-11-19T12:52:56;27.58;;;6.65;;
82417;SDS011;72059;53.734;10.260;2023-11-19T12:55:28;24.35;;;5.15;;
82417;SDS011;72059;53.734;10.260;2023-11-19T12:57:57;25.17;;;5.83;;
82417;SDS011;72059;53.734;10.260;2023-11-19T13:00:25;32.42;;;5.47;;
82417;SDS011;72059;53.734;10.260;2023-11-19T13:02:59;32.20;;;6.12;;
82417;SDS011;72059;53.734;10.260;2023-11-19T13:05:30;46.85;;;7.35;;
82417;SDS011;72059;53.734;10.260;2023-11-19T13:07:59;30.80;;;6.78;;
82417;SDS011;72059;53.734;10.260;2023-11-19T13:10:27;31.60;;;6.12;;
82417;SDS011;72059;53.734;10.260;2023-11-19T13:13:02;31.00;;;7.35;;
82417;SDS011;72059;53.734;10.260;2023-11-19T13:15:31;37.38;;;7.92;;
82417;SDS011;72059;53.734;10.260;2023-11-19T13:17:59;32.85;;;7.03;;
82417;SDS011;72059;53.734;10.260;2023-11-19T13:20:27;28.77;;;5.45;;
82417;SDS011;72059;53.734;10.260;2023-11-19T13:22:56;33.50;;;6.45;;
82417;SDS011;72059;53.734;10.260;2023-11-19T13:25:27;25.72;;;6.03;;
82417;SDS011;72059;53.734;10.260;2023-11-19T13:27:55;35.08;;;6.45;;
82417;SDS011;72059;53.734;10.260;2023-11-19T13:30:23;28.92;;;6.80;;
82417;SDS011;72059;53.734;10.260;2023-11-19T13:32:51;37.10;;;7.92;;
82417;SDS011;72059;53.734;10.260;2023-11-19T13:35:20;34.03;;;5.97;;
82417;SDS011;72059;53.734;10.260;2023-11-19T13:37:52;35.65;;;6.37;;
82417;SDS011;72059;53.734;10.260;2023-11-19T13:40:20;32.28;;;6.60;;
82417;SDS011;72059;53.734;10.260;2023-11-19T13:42:48;28.87;;;6.95;;
82417;SDS011;72059;53.734;10.260;2023-11-19T13:45:15;34.08;;;6.40;;
82417;SDS011;72059;53.734;10.260;2023-11-19T13:47:44;29.90;;;6.47;;
82417;SDS011;72059;53.734;10.260;2023-11-19T13:50:15;36.70;;;7.72;;
82417;SDS011;72059;53.734;10.260;2023-11-19T13:52:43;27.45;;;7.75;;
82417;SDS011;72059;53.734;10.260;2023-11-19T13:55:13;34.27;;;7.00;;
82417;SDS011;72059;53.734;10.260;2023-11-19T13:57:41;30.72;;;6.65;;
82417;SDS011;72059;53.734;10.260;2023-11-19T14:00:09;28.73;;;7.42;;
82417;SDS011;72059;53.734;10.260;2023-11-19T14:02:45;24.67;;;6.08;;
82417;SDS011;72059;53.734;10.260;2023-11-19T14:05:13;26.10;;;5.87;;
82417;SDS011;72059;53.734;10.260;2023-11-19T14:07:43;31.48;;;6.58;;
82417;SDS011;72059;53.734;10.260;2023-11-19T14:10:13;24.85;;;5.60;;
82417;SDS011;72059;53.734;10.260;2023-11-19T14:12:41;30.10;;;7.33;;
82417;SDS011;72059;53.734;10.260;2023-11-19T14:15:09;25.90;;;5.75;;
82417;SDS011;72059;53.734;10.260;2023-11-19T14:17:38;31.15;;;6.17;;
82417;SDS011;72059;53.734;10.260;2023-11-19T14:20:06;35.08;;;6.45;;
82417;SDS011;72059;53.734;10.260;2023-11-19T14:22:41;37.53;;;8.15;;
82417;SDS011;72059;53.734;10.260;2023-11-19T14:25:10;28.07;;;7.08;;
82417;SDS011;72059;53.734;10.260;2023-11-19T14:27:38;38.05;;;7.05;;
82417;SDS011;72059;53.734;10.260;2023-11-19T14:30:10;31.15;;;7.20;;
82417;SDS011;72059;53.734;10.260;2023-11-19T14:32:40;33.13;;;6.87;;
82417;SDS011;72059;53.734;10.260;2023-11-19T14:35:10;32.38;;;6.97;;
82417;SDS011;72059;53.734;10.260;2023-11-19T14:37:37;30.97;;;6.67;;
82417;SDS011;72059;53.734;10.260;2023-11-19T14:40:05;41.98;;;7.22;;
82417;SDS011;72059;53.734;10.260;2023-11-19T14:42:35;30.95;;;5.83;;
82417;SDS011;72059;53.734;10.260;2023-11-19T14:45:02;29.15;;;4.92;;
82417;SDS011;72059;53.734;10.260;2023-11-19T14:47:30;24.92;;;6.67;;
82417;SDS011;72059;53.734;10.260;2023-11-19T14:49:57;26.20;;;5.28;;
82417;SDS011;72059;53.734;10.260;2023-11-19T14:52:25;27.40;;;4.97;;
82417;SDS011;72059;53.734;10.260;2023-11-19T14:54:52;32.63;;;6.10;;